sensor_id;sensor_type;location;lat;lon;timestamp;P1;durP1;ratioP1;P2;durP2;ratioP2
69511;SDS011;70777;52.034;4.644;2023-07-08T00:01:40;5.03;;;2.72;;
69511;SDS011;70777;52.034;4.644;2023-07-08T00:04:05;4.72;;;2.90;;
69511;SDS011;70777;52.034;4.644;2023-07-08T00:06:34;6.47;;;3.20;;
69511;SDS011;70777;52.034;4.644;2023-07-08T00:08:59;5.88;;;3.03;;
69511;SDS011;70777;52.034;4.644;2023-07-08T00:11:25;5.28;;;3.00;;
69511;SDS011;70777;52.034;4.644;2023-07-08T00:13:51;6.90;;;2.92;;
69511;SDS011;70777;52.034;4.644;2023-07-08T00:16:18;7.63;;;2.95;;
69511;SDS011;70777;52.034;4.644;2023-07-08T00:18:43;5.30;;;2.63;;
69511;SDS011;70777;52.034;4.644;2023-07-08T00:21:10;7.47;;;3.30;;
69511;SDS011;70777;52.034;4.644;2023-07-08T00:23:39;6.25;;;3.30;;
69511;SDS011;70777;52.034;4.644;2023-07-08T00:28:53;9.27;;;3.38;;
69511;SDS011;70777;52.034;4.644;2023-07-08T00:31:18;4.18;;;2.60;;
69511;SDS011;70777;52.034;4.644;2023-07-08T00:33:49;5.43;;;3.13;;
69511;SDS011;70777;52.034;4.644;2023-07-08T00:36:15;6.15;;;3.28;;
69511;SDS011;70777;52.034;4.644;2023-07-08T00:38:42;3.55;;;2.53;;
69511;SDS011;70777;52.034;4.644;2023-07-08T00:41:18;6.63;;;3.08;;
69511;SDS011;70777;52.034;4.644;2023-07-08T00:49:08;5.68;;;3.13;;
69511;SDS011;70777;52.034;4.644;2023-07-08T00:51:39;4.75;;;2.95;;
69511;SDS011;70777;52.034;4.644;2023-07-08T00:54:15;5.72;;;3.15;;
69511;SDS011;70777;52.034;4.644;2023-07-08T00:56:44;6.70;;;2.83;;
69511;SDS011;70777;52.034;4.644;2023-07-08T00:59:18;6.70;;;2.95;;
69511;SDS011;70777;52.034;4.644;2023-07-08T01:01:54;6.25;;;3.17;;
69511;SDS011;70777;52.034;4.644;2023-07-08T01:04:34;8.55;;;3.53;;
69511;SDS011;70777;52.034;4.644;2023-07-08T01:07:04;6.63;;;2.90;;
69511;SDS011;70777;52.034;4.644;2023-07-08T01:09:33;8.35;;;3.42;;
69511;SDS011;70777;52.034;4.644;2023-07-08T01:12:10;6.03;;;3.25;;
69511;SDS011;70777;52.034;4.644;2023-07-08T01:14:38;6.45;;;3.13;;
69511;SDS011;70777;52.034;4.644;2023-07-08T01:17:07;6.00;;;3.22;;
69511;SDS011;70777;52.034;4.644;2023-07-08T01:19:33;4.18;;;2.90;;
69511;SDS011;70777;52.034;4.644;2023-07-08T01:24:28;4.55;;;2.90;;
69511;SDS011;70777;52.034;4.644;2023-07-08T01:26:55;4.88;;;2.92;;
69511;SDS011;70777;52.034;4.644;2023-07-08T01:29:20;5.82;;;3.30;;
69511;SDS011;70777;52.034;4.644;2023-07-08T01:31:46;7.75;;;3.45;;
69511;SDS011;70777;52.034;4.644;2023-07-08T01:34:14;8.15;;;3.75;;
69511;SDS011;70777;52.034;4.644;2023-07-08T01:36:41;6.72;;;3.25;;
69511;SDS011;70777;52.034;4.644;2023-07-08T01:39:13;4.32;;;3.20;;
69511;SDS011;70777;52.034;4.644;2023-07-08T01:41:40;6.63;;;3.53;;
69511;SDS011;70777;52.034;4.644;2023-07-08T01:44:18;6.65;;;3.80;;
69511;SDS011;70777;52.034;4.644;2023-07-08T01:47:15;8.57;;;3.75;;
69511;SDS011;70777;52.034;4.644;2023-07-08T01:49:43;5.65;;;3.28;;
69511;SDS011;70777;52.034;4.644;2023-07-08T01:52:10;7.22;;;3.22;;
69511;SDS011;70777;52.034;4.644;2023-07-08T01:54:36;5.22;;;3.38;;
69511;SDS011;70777;52.034;4.644;2023-07-08T01:57:02;6.82;;;3.58;;
69511;SDS011;70777;52.034;4.644;2023-07-08T01:59:28;5.57;;;3.20;;
69511;SDS011;70777;52.034;4.644;2023-07-08T02:01:54;5.97;;;3.42;;
69511;SDS011;70777;52.034;4.644;2023-07-08T02:04:23;4.07;;;3.35;;
69511;SDS011;70777;52.034;4.644;2023-07-08T02:06:57;5.57;;;3.72;;
69511;SDS011;70777;52.034;4.644;2023-07-08T02:09:24;5.45;;;3.45;;
69511;SDS011;70777;52.034;4.644;2023-07-08T02:11:50;3.97;;;3.03;;
69511;SDS011;70777;52.034;4.644;2023-07-08T02:14:16;8.25;;;4.15;;
69511;SDS011;70777;52.034;4.644;2023-07-08T02:16:41;6.80;;;3.65;;
69511;SDS011;70777;52.034;4.644;2023-07-08T02:19:07;12.27;;;4.07;;
69511;SDS011;70777;52.034;4.644;2023-07-08T02:21:32;5.78;;;3.75;;
69511;SDS011;70777;52.034;4.644;2023-07-08T02:23:59;7.47;;;4.00;;
69511;SDS011;70777;52.034;4.644;2023-07-08T02:26:25;7.53;;;3.83;;
69511;SDS011;70777;52.034;4.644;2023-07-08T02:28:51;5.63;;;3.63;;
69511;SDS011;70777;52.034;4.644;2023-07-08T02:31:16;5.95;;;3.33;;
69511;SDS011;70777;52.034;4.644;2023-07-08T02:33:42;7.30;;;3.88;;
69511;SDS011;70777;52.034;4.644;2023-07-08T02:36:07;5.85;;;3.80;;
69511;SDS011;70777;52.034;4.644;2023-07-08T02:38:33;8.88;;;3.60;;
69511;SDS011;70777;52.034;4.644;2023-07-08T02:41:00;5.63;;;3.75;;
69511;SDS011;70777;52.034;4.644;2023-07-08T02:43:25;8.05;;;3.97;;
69511;SDS011;70777;52.034;4.644;2023-07-08T02:45:51;6.05;;;4.00;;
69511;SDS011;70777;52.034;4.644;2023-07-08T02:48:17;12.05;;;4.00;;
69511;SDS011;70777;52.034;4.644;2023-07-08T02:50:43;8.27;;;4.35;;
69511;SDS011;70777;52.034;4.644;2023-07-08T02:53:09;6.07;;;3.80;;
69511;SDS011;70777;52.034;4.644;2023-07-08T02:55:34;5.50;;;4.13;;
69511;SDS011;70777;52.034;4.644;2023-07-08T02:57:59;6.28;;;4.22;;
69511;SDS011;70777;52.034;4.644;2023-07-08T03:00:25;9.98;;;4.55;;
69511;SDS011;70777;52.034;4.644;2023-07-08T03:02:50;5.70;;;4.43;;
69511;SDS011;70777;52.034;4.644;2023-07-08T03:05:16;5.90;;;3.60;;
69511;SDS011;70777;52.034;4.644;2023-07-08T03:07:41;7.65;;;4.30;;
69511;SDS011;70777;52.034;4.644;2023-07-08T03:10:07;7.97;;;3.92;;
69511;SDS011;70777;52.034;4.644;2023-07-08T03:12:32;8.82;;;4.10;;
69511;SDS011;70777;52.034;4.644;2023-07-08T03:14:58;8.20;;;3.92;;
69511;SDS011;70777;52.034;4.644;2023-07-08T03:17:23;7.60;;;4.47;;
69511;SDS011;70777;52.034;4.644;2023-07-08T03:19:50;6.20;;;4.10;;
69511;SDS011;70777;52.034;4.644;2023-07-08T03:22:15;6.20;;;4.27;;
69511;SDS011;70777;52.034;4.644;2023-07-08T03:24:41;6.60;;;4.38;;
69511;SDS011;70777;52.034;4.644;2023-07-08T03:27:11;9.52;;;4.18;;
69511;SDS011;70777;52.034;4.644;2023-07-08T03:29:39;6.47;;;4.07;;
69511;SDS011;70777;52.034;4.644;2023-07-08T03:32:06;7.97;;;4.50;;
69511;SDS011;70777;52.034;4.644;2023-07-08T03:34:33;8.43;;;4.00;;
69511;SDS011;70777;52.034;4.644;2023-07-08T03:36:59;6.57;;;3.90;;
69511;SDS011;70777;52.034;4.644;2023-07-08T03:39:24;5.68;;;3.72;;
69511;SDS011;70777;52.034;4.644;2023-07-08T03:41:50;5.65;;;3.50;;
69511;SDS011;70777;52.034;4.644;2023-07-08T03:44:17;8.87;;;4.40;;
69511;SDS011;70777;52.034;4.644;2023-07-08T03:46:45;6.28;;;3.97;;
69511;SDS011;70777;52.034;4.644;2023-07-08T03:49:11;7.20;;;4.00;;
69511;SDS011;70777;52.034;4.644;2023-07-08T03:51:38;6.47;;;3.80;;
69511;SDS011;70777;52.034;4.644;2023-07-08T03:54:05;7.50;;;4.28;;
69511;SDS011;70777;52.034;4.644;2023-07-08T03:56:32;6.30;;;3.95;;
69511;SDS011;70777;52.034;4.644;2023-07-08T03:58:57;7.95;;;3.88;;
69511;SDS011;70777;52.034;4.644;2023-07-08T04:01:23;5.03;;;3.70;;
69511;SDS011;70777;52.034;4.644;2023-07-08T04:03:51;7.97;;;4.78;;
69511;SDS011;70777;52.034;4.644;2023-07-08T04:06:18;6.80;;;4.28;;
69511;SDS011;70777;52.034;4.644;2023-07-08T04:08:43;6.65;;;4.38;;
69511;SDS011;70777;52.034;4.644;2023-07-08T04:11:10;6.00;;;4.30;;
69511;SDS011;70777;52.034;4.644;2023-07-08T04:13:37;6.47;;;3.63;;
69511;SDS011;70777;52.034;4.644;2023-07-08T04:16:04;5.18;;;3.42;;
69511;SDS011;70777;52.034;4.644;2023-07-08T04:18:30;7.32;;;4.32;;
69511;SDS011;70777;52.034;4.644;2023-07-08T04:20:55;6.18;;;4.20;;
69511;SDS011;70777;52.034;4.644;2023-07-08T04:23:21;7.57;;;4.22;;
69511;SDS011;70777;52.034;4.644;2023-07-08T04:25:47;5.53;;;3.90;;
69511;SDS011;70777;52.034;4.644;2023-07-08T04:28:14;5.95;;;3.95;;
69511;SDS011;70777;52.034;4.644;2023-07-08T04:30:40;5.38;;;3.22;;
69511;SDS011;70777;52.034;4.644;2023-07-08T04:33:07;9.48;;;3.35;;
69511;SDS011;70777;52.034;4.644;2023-07-08T04:35:33;5.25;;;3.28;;
69511;SDS011;70777;52.034;4.644;2023-07-08T04:38:02;4.63;;;3.85;;
69511;SDS011;70777;52.034;4.644;2023-07-08T04:40:34;6.00;;;4.35;;
69511;SDS011;70777;52.034;4.644;2023-07-08T04:43:02;8.55;;;3.95;;
69511;SDS011;70777;52.034;4.644;2023-07-08T04:45:28;5.78;;;3.92;;
69511;SDS011;70777;52.034;4.644;2023-07-08T04:47:53;6.97;;;3.47;;
69511;SDS011;70777;52.034;4.644;2023-07-08T04:50:19;8.02;;;4.18;;
69511;SDS011;70777;52.034;4.644;2023-07-08T04:52:44;9.52;;;4.03;;
69511;SDS011;70777;52.034;4.644;2023-07-08T04:55:10;7.05;;;3.83;;
69511;SDS011;70777;52.034;4.644;2023-07-08T04:57:36;6.80;;;4.13;;
69511;SDS011;70777;52.034;4.644;2023-07-08T05:00:02;7.15;;;4.00;;
69511;SDS011;70777;52.034;4.644;2023-07-08T05:02:28;5.97;;;4.00;;
69511;SDS011;70777;52.034;4.644;2023-07-08T05:04:54;9.05;;;4.40;;
69511;SDS011;70777;52.034;4.644;2023-07-08T05:07:19;7.30;;;3.75;;
69511;SDS011;70777;52.034;4.644;2023-07-08T05:09:44;5.97;;;3.65;;
69511;SDS011;70777;52.034;4.644;2023-07-08T05:12:10;7.57;;;4.47;;
69511;SDS011;70777;52.034;4.644;2023-07-08T05:14:35;6.25;;;4.40;;
69511;SDS011;70777;52.034;4.644;2023-07-08T05:17:00;6.00;;;4.18;;
69511;SDS011;70777;52.034;4.644;2023-07-08T05:19:26;6.20;;;4.22;;
69511;SDS011;70777;52.034;4.644;2023-07-08T05:21:52;6.28;;;4.30;;
69511;SDS011;70777;52.034;4.644;2023-07-08T05:24:18;7.53;;;4.30;;
69511;SDS011;70777;52.034;4.644;2023-07-08T05:26:44;5.72;;;3.80;;
69511;SDS011;70777;52.034;4.644;2023-07-08T05:29:09;5.28;;;3.80;;
69511;SDS011;70777;52.034;4.644;2023-07-08T05:31:35;6.32;;;4.20;;
69511;SDS011;70777;52.034;4.644;2023-07-08T05:34:00;6.00;;;3.80;;
69511;SDS011;70777;52.034;4.644;2023-07-08T05:36:26;6.32;;;4.50;;
69511;SDS011;70777;52.034;4.644;2023-07-08T05:38:51;6.78;;;4.35;;
69511;SDS011;70777;52.034;4.644;2023-07-08T05:41:16;7.30;;;4.07;;
69511;SDS011;70777;52.034;4.644;2023-07-08T05:43:42;9.98;;;3.95;;
69511;SDS011;70777;52.034;4.644;2023-07-08T05:46:07;5.75;;;3.90;;
69511;SDS011;70777;52.034;4.644;2023-07-08T05:48:32;7.10;;;4.13;;
69511;SDS011;70777;52.034;4.644;2023-07-08T05:50:58;6.70;;;3.95;;
69511;SDS011;70777;52.034;4.644;2023-07-08T05:53:23;6.75;;;3.67;;
69511;SDS011;70777;52.034;4.644;2023-07-08T05:55:49;6.30;;;3.63;;
69511;SDS011;70777;52.034;4.644;2023-07-08T05:58:15;5.30;;;3.90;;
69511;SDS011;70777;52.034;4.644;2023-07-08T06:00:41;5.97;;;4.22;;
69511;SDS011;70777;52.034;4.644;2023-07-08T06:03:07;8.38;;;4.00;;
69511;SDS011;70777;52.034;4.644;2023-07-08T06:05:33;5.43;;;3.73;;
69511;SDS011;70777;52.034;4.644;2023-07-08T06:07:59;5.33;;;3.37;;
69511;SDS011;70777;52.034;4.644;2023-07-08T06:10:24;5.50;;;3.70;;
69511;SDS011;70777;52.034;4.644;2023-07-08T06:12:50;4.67;;;2.83;;
69511;SDS011;70777;52.034;4.644;2023-07-08T06:15:15;4.65;;;2.85;;
69511;SDS011;70777;52.034;4.644;2023-07-08T06:17:41;6.13;;;2.73;;
69511;SDS011;70777;52.034;4.644;2023-07-08T06:20:07;4.63;;;2.60;;
69511;SDS011;70777;52.034;4.644;2023-07-08T06:22:32;10.13;;;3.53;;
69511;SDS011;70777;52.034;4.644;2023-07-08T06:24:58;5.03;;;2.87;;
69511;SDS011;70777;52.034;4.644;2023-07-08T06:27:23;6.30;;;2.90;;
69511;SDS011;70777;52.034;4.644;2023-07-08T06:32:15;6.47;;;2.90;;
69511;SDS011;70777;52.034;4.644;2023-07-08T06:34:40;6.77;;;2.67;;
69511;SDS011;70777;52.034;4.644;2023-07-08T06:37:05;7.10;;;2.83;;
69511;SDS011;70777;52.034;4.644;2023-07-08T06:39:31;7.47;;;3.07;;
69511;SDS011;70777;52.034;4.644;2023-07-08T06:41:56;4.10;;;2.70;;
69511;SDS011;70777;52.034;4.644;2023-07-08T06:44:22;7.57;;;2.60;;
69511;SDS011;70777;52.034;4.644;2023-07-08T06:46:47;6.73;;;3.03;;
69511;SDS011;70777;52.034;4.644;2023-07-08T06:49:12;6.63;;;3.23;;
69511;SDS011;70777;52.034;4.644;2023-07-08T06:51:38;4.87;;;2.87;;
69511;SDS011;70777;52.034;4.644;2023-07-08T06:54:04;4.25;;;2.70;;
69511;SDS011;70777;52.034;4.644;2023-07-08T06:56:39;6.22;;;3.03;;
69511;SDS011;70777;52.034;4.644;2023-07-08T06:59:06;4.00;;;2.63;;
69511;SDS011;70777;52.034;4.644;2023-07-08T07:01:32;5.82;;;2.63;;
69511;SDS011;70777;52.034;4.644;2023-07-08T07:03:58;4.75;;;2.53;;
69511;SDS011;70777;52.034;4.644;2023-07-08T07:06:24;5.65;;;3.17;;
69511;SDS011;70777;52.034;4.644;2023-07-08T07:08:49;8.52;;;3.38;;
69511;SDS011;70777;52.034;4.644;2023-07-08T07:13:40;5.97;;;2.50;;
69511;SDS011;70777;52.034;4.644;2023-07-08T07:16:05;4.95;;;3.10;;
69511;SDS011;70777;52.034;4.644;2023-07-08T07:20:58;6.43;;;2.90;;
69511;SDS011;70777;52.034;4.644;2023-07-08T07:23:24;4.28;;;2.60;;
69511;SDS011;70777;52.034;4.644;2023-07-08T07:30:42;4.65;;;2.70;;
69511;SDS011;70777;52.034;4.644;2023-07-08T07:33:08;3.78;;;2.60;;
69511;SDS011;70777;52.034;4.644;2023-07-08T07:37:58;5.23;;;2.90;;
69511;SDS011;70777;52.034;4.644;2023-07-08T07:42:49;5.43;;;2.70;;
69511;SDS011;70777;52.034;4.644;2023-07-08T07:45:14;7.18;;;2.70;;
69511;SDS011;70777;52.034;4.644;2023-07-08T07:54:56;4.65;;;2.92;;
69511;SDS011;70777;52.034;4.644;2023-07-08T07:57:22;4.88;;;2.58;;
69511;SDS011;70777;52.034;4.644;2023-07-08T08:02:13;7.10;;;2.80;;
69511;SDS011;70777;52.034;4.644;2023-07-08T08:04:39;5.97;;;2.88;;
69511;SDS011;70777;52.034;4.644;2023-07-08T08:11:55;4.30;;;2.97;;
69511;SDS011;70777;52.034;4.644;2023-07-08T08:14:21;5.47;;;2.95;;
69511;SDS011;70777;52.034;4.644;2023-07-08T08:19:11;5.10;;;2.87;;
69511;SDS011;70777;52.034;4.644;2023-07-08T08:21:37;6.50;;;2.80;;
69511;SDS011;70777;52.034;4.644;2023-07-08T08:24:02;5.60;;;2.80;;
69511;SDS011;70777;52.034;4.644;2023-07-08T08:26:28;8.27;;;3.30;;
69511;SDS011;70777;52.034;4.644;2023-07-08T08:28:55;5.32;;;3.20;;
69511;SDS011;70777;52.034;4.644;2023-07-08T08:31:20;5.03;;;2.83;;
69511;SDS011;70777;52.034;4.644;2023-07-08T08:33:45;5.10;;;3.13;;
69511;SDS011;70777;52.034;4.644;2023-07-08T08:36:11;5.85;;;3.15;;
69511;SDS011;70777;52.034;4.644;2023-07-08T08:38:36;6.03;;;3.33;;
69511;SDS011;70777;52.034;4.644;2023-07-08T08:41:15;6.00;;;3.20;;
69511;SDS011;70777;52.034;4.644;2023-07-08T08:43:42;8.88;;;3.58;;
69511;SDS011;70777;52.034;4.644;2023-07-08T08:51:46;7.82;;;3.63;;
69511;SDS011;70777;52.034;4.644;2023-07-08T08:54:12;6.45;;;3.88;;
69511;SDS011;70777;52.034;4.644;2023-07-08T08:56:39;7.20;;;3.97;;
69511;SDS011;70777;52.034;4.644;2023-07-08T09:05:05;5.93;;;3.53;;
69511;SDS011;70777;52.034;4.644;2023-07-08T09:07:43;8.43;;;4.05;;
69511;SDS011;70777;52.034;4.644;2023-07-08T09:10:19;5.35;;;3.35;;
69511;SDS011;70777;52.034;4.644;2023-07-08T09:13:02;5.97;;;3.63;;
69511;SDS011;70777;52.034;4.644;2023-07-08T09:15:28;7.72;;;3.83;;
69511;SDS011;70777;52.034;4.644;2023-07-08T09:17:53;9.30;;;3.58;;
69511;SDS011;70777;52.034;4.644;2023-07-08T09:20:23;5.90;;;4.03;;
69511;SDS011;70777;52.034;4.644;2023-07-08T09:22:59;5.88;;;3.22;;
69511;SDS011;70777;52.034;4.644;2023-07-08T09:25:32;8.13;;;4.03;;
69511;SDS011;70777;52.034;4.644;2023-07-08T09:27:59;5.63;;;3.40;;
69511;SDS011;70777;52.034;4.644;2023-07-08T09:30:27;6.07;;;3.88;;
69511;SDS011;70777;52.034;4.644;2023-07-08T09:32:55;6.80;;;3.78;;
69511;SDS011;70777;52.034;4.644;2023-07-08T09:35:25;6.43;;;3.60;;
69511;SDS011;70777;52.034;4.644;2023-07-08T09:38:06;7.07;;;3.78;;
69511;SDS011;70777;52.034;4.644;2023-07-08T09:40:32;5.32;;;3.30;;
69511;SDS011;70777;52.034;4.644;2023-07-08T09:42:59;7.00;;;3.85;;
69511;SDS011;70777;52.034;4.644;2023-07-08T09:45:27;9.52;;;3.70;;
69511;SDS011;70777;52.034;4.644;2023-07-08T09:47:54;6.93;;;3.95;;
69511;SDS011;70777;52.034;4.644;2023-07-08T09:52:54;7.35;;;3.90;;
69511;SDS011;70777;52.034;4.644;2023-07-08T09:55:22;6.15;;;4.00;;
69511;SDS011;70777;52.034;4.644;2023-07-08T09:57:49;6.28;;;3.90;;
69511;SDS011;70777;52.034;4.644;2023-07-08T10:00:24;6.35;;;4.15;;
69511;SDS011;70777;52.034;4.644;2023-07-08T10:02:56;6.75;;;4.18;;
69511;SDS011;70777;52.034;4.644;2023-07-08T10:05:32;6.88;;;4.40;;
69511;SDS011;70777;52.034;4.644;2023-07-08T10:08:02;6.57;;;4.07;;
69511;SDS011;70777;52.034;4.644;2023-07-08T10:10:35;6.75;;;4.43;;
69511;SDS011;70777;52.034;4.644;2023-07-08T10:13:20;7.78;;;3.97;;
69511;SDS011;70777;52.034;4.644;2023-07-08T10:15:54;9.18;;;4.32;;
69511;SDS011;70777;52.034;4.644;2023-07-08T10:18:26;8.90;;;4.63;;
69511;SDS011;70777;52.034;4.644;2023-07-08T10:21:02;9.50;;;4.80;;
69511;SDS011;70777;52.034;4.644;2023-07-08T10:23:51;10.73;;;4.82;;
69511;SDS011;70777;52.034;4.644;2023-07-08T10:31:49;8.80;;;4.40;;
69511;SDS011;70777;52.034;4.644;2023-07-08T10:34:23;10.90;;;4.97;;
69511;SDS011;70777;52.034;4.644;2023-07-08T10:37:11;6.43;;;4.47;;
69511;SDS011;70777;52.034;4.644;2023-07-08T10:45:15;10.55;;;4.82;;
69511;SDS011;70777;52.034;4.644;2023-07-08T10:47:52;8.70;;;4.65;;
69511;SDS011;70777;52.034;4.644;2023-07-08T10:55:59;7.78;;;4.18;;
69511;SDS011;70777;52.034;4.644;2023-07-08T11:06:26;6.57;;;4.28;;
69511;SDS011;70777;52.034;4.644;2023-07-08T11:08:58;8.80;;;4.95;;
69511;SDS011;70777;52.034;4.644;2023-07-08T11:14:16;7.78;;;4.55;;
69511;SDS011;70777;52.034;4.644;2023-07-08T11:16:49;7.88;;;5.07;;
69511;SDS011;70777;52.034;4.644;2023-07-08T11:19:40;8.27;;;4.18;;
69511;SDS011;70777;52.034;4.644;2023-07-08T11:22:09;8.23;;;4.47;;
69511;SDS011;70777;52.034;4.644;2023-07-08T11:24:38;6.82;;;4.50;;
69511;SDS011;70777;52.034;4.644;2023-07-08T11:32:21;7.85;;;4.80;;
69511;SDS011;70777;52.034;4.644;2023-07-08T11:34:48;8.95;;;5.03;;
69511;SDS011;70777;52.034;4.644;2023-07-08T11:37:15;9.07;;;5.82;;
69511;SDS011;70777;52.034;4.644;2023-07-08T11:39:42;11.65;;;5.38;;
69511;SDS011;70777;52.034;4.644;2023-07-08T11:42:13;7.80;;;5.03;;
69511;SDS011;70777;52.034;4.644;2023-07-08T11:44:51;8.57;;;5.40;;
69511;SDS011;70777;52.034;4.644;2023-07-08T11:50:30;10.30;;;4.82;;
69511;SDS011;70777;52.034;4.644;2023-07-08T11:52:58;8.38;;;4.63;;
69511;SDS011;70777;52.034;4.644;2023-07-08T12:08:55;8.10;;;4.80;;
69511;SDS011;70777;52.034;4.644;2023-07-08T12:11:28;8.05;;;5.57;;
69511;SDS011;70777;52.034;4.644;2023-07-08T12:14:01;8.93;;;5.15;;
69511;SDS011;70777;52.034;4.644;2023-07-08T12:16:29;6.50;;;4.55;;
69511;SDS011;70777;52.034;4.644;2023-07-08T12:18:55;8.45;;;5.07;;
69511;SDS011;70777;52.034;4.644;2023-07-08T12:21:22;8.98;;;4.47;;
69511;SDS011;70777;52.034;4.644;2023-07-08T12:23:48;9.02;;;4.80;;
69511;SDS011;70777;52.034;4.644;2023-07-08T12:26:14;8.07;;;4.82;;
69511;SDS011;70777;52.034;4.644;2023-07-08T12:28:40;8.27;;;5.38;;
69511;SDS011;70777;52.034;4.644;2023-07-08T12:31:15;7.43;;;5.10;;
69511;SDS011;70777;52.034;4.644;2023-07-08T12:33:44;10.88;;;5.25;;
69511;SDS011;70777;52.034;4.644;2023-07-08T12:36:10;7.97;;;5.30;;
69511;SDS011;70777;52.034;4.644;2023-07-08T12:38:46;5.45;;;4.30;;
69511;SDS011;70777;52.034;4.644;2023-07-08T12:41:14;6.60;;;4.95;;
69511;SDS011;70777;52.034;4.644;2023-07-08T12:43:42;9.38;;;5.18;;
69511;SDS011;70777;52.034;4.644;2023-07-08T12:46:12;7.68;;;4.70;;
69511;SDS011;70777;52.034;4.644;2023-07-08T12:48:38;11.40;;;4.97;;
69511;SDS011;70777;52.034;4.644;2023-07-08T12:51:05;9.75;;;4.70;;
69511;SDS011;70777;52.034;4.644;2023-07-08T12:53:31;9.70;;;5.78;;
69511;SDS011;70777;52.034;4.644;2023-07-08T12:55:59;9.32;;;5.10;;
69511;SDS011;70777;52.034;4.644;2023-07-08T12:58:25;9.93;;;5.15;;
69511;SDS011;70777;52.034;4.644;2023-07-08T13:00:53;9.38;;;4.80;;
69511;SDS011;70777;52.034;4.644;2023-07-08T13:03:20;6.53;;;4.47;;
69511;SDS011;70777;52.034;4.644;2023-07-08T13:05:52;7.00;;;4.50;;
69511;SDS011;70777;52.034;4.644;2023-07-08T13:08:20;7.95;;;5.15;;
69511;SDS011;70777;52.034;4.644;2023-07-08T13:10:47;6.95;;;4.45;;
69511;SDS011;70777;52.034;4.644;2023-07-08T13:13:19;6.82;;;4.22;;
69511;SDS011;70777;52.034;4.644;2023-07-08T13:15:51;8.63;;;4.53;;
69511;SDS011;70777;52.034;4.644;2023-07-08T13:18:21;7.40;;;4.32;;
69511;SDS011;70777;52.034;4.644;2023-07-08T13:20:51;7.85;;;4.70;;
69511;SDS011;70777;52.034;4.644;2023-07-08T13:23:18;9.05;;;4.40;;
69511;SDS011;70777;52.034;4.644;2023-07-08T13:25:46;8.98;;;4.90;;
69511;SDS011;70777;52.034;4.644;2023-07-08T13:28:17;8.82;;;4.47;;
69511;SDS011;70777;52.034;4.644;2023-07-08T13:31:00;7.80;;;4.57;;
69511;SDS011;70777;52.034;4.644;2023-07-08T13:33:30;7.75;;;4.68;;
69511;SDS011;70777;52.034;4.644;2023-07-08T13:35:57;8.45;;;4.72;;
69511;SDS011;70777;52.034;4.644;2023-07-08T13:38:23;5.93;;;4.57;;
69511;SDS011;70777;52.034;4.644;2023-07-08T13:40:54;7.93;;;4.60;;
69511;SDS011;70777;52.034;4.644;2023-07-08T13:43:24;7.80;;;4.60;;
69511;SDS011;70777;52.034;4.644;2023-07-08T13:45:51;7.20;;;4.43;;
69511;SDS011;70777;52.034;4.644;2023-07-08T13:48:24;7.85;;;5.18;;
69511;SDS011;70777;52.034;4.644;2023-07-08T13:50:53;8.45;;;4.70;;
69511;SDS011;70777;52.034;4.644;2023-07-08T13:53:27;9.27;;;4.63;;
69511;SDS011;70777;52.034;4.644;2023-07-08T13:56:14;8.93;;;5.25;;
69511;SDS011;70777;52.034;4.644;2023-07-08T13:58:45;7.70;;;4.35;;
69511;SDS011;70777;52.034;4.644;2023-07-08T14:01:31;7.90;;;5.30;;
69511;SDS011;70777;52.034;4.644;2023-07-08T14:03:59;8.65;;;4.80;;
69511;SDS011;70777;52.034;4.644;2023-07-08T14:06:32;8.73;;;5.47;;
69511;SDS011;70777;52.034;4.644;2023-07-08T14:09:06;8.80;;;5.22;;
69511;SDS011;70777;52.034;4.644;2023-07-08T14:11:42;8.07;;;4.65;;
69511;SDS011;70777;52.034;4.644;2023-07-08T14:14:08;8.20;;;4.93;;
69511;SDS011;70777;52.034;4.644;2023-07-08T14:16:34;8.25;;;4.50;;
69511;SDS011;70777;52.034;4.644;2023-07-08T14:19:02;7.00;;;4.65;;
69511;SDS011;70777;52.034;4.644;2023-07-08T14:21:29;10.15;;;5.00;;
69511;SDS011;70777;52.034;4.644;2023-07-08T14:23:55;8.30;;;4.72;;
69511;SDS011;70777;52.034;4.644;2023-07-08T14:26:20;8.00;;;5.13;;
69511;SDS011;70777;52.034;4.644;2023-07-08T14:28:46;8.80;;;5.20;;
69511;SDS011;70777;52.034;4.644;2023-07-08T14:31:12;9.93;;;5.40;;
69511;SDS011;70777;52.034;4.644;2023-07-08T14:33:40;9.75;;;5.30;;
69511;SDS011;70777;52.034;4.644;2023-07-08T14:36:12;8.38;;;5.18;;
69511;SDS011;70777;52.034;4.644;2023-07-08T14:38:37;10.05;;;5.03;;
69511;SDS011;70777;52.034;4.644;2023-07-08T14:41:03;9.93;;;5.18;;
69511;SDS011;70777;52.034;4.644;2023-07-08T14:43:30;7.32;;;5.07;;
69511;SDS011;70777;52.034;4.644;2023-07-08T14:45:57;10.65;;;5.35;;
69511;SDS011;70777;52.034;4.644;2023-07-08T14:48:24;9.00;;;4.65;;
69511;SDS011;70777;52.034;4.644;2023-07-08T14:50:52;8.75;;;5.45;;
69511;SDS011;70777;52.034;4.644;2023-07-08T14:53:17;12.50;;;5.00;;
69511;SDS011;70777;52.034;4.644;2023-07-08T14:55:44;11.30;;;5.28;;
69511;SDS011;70777;52.034;4.644;2023-07-08T14:58:17;10.57;;;5.60;;
69511;SDS011;70777;52.034;4.644;2023-07-08T15:00:47;9.80;;;5.40;;
69511;SDS011;70777;52.034;4.644;2023-07-08T15:03:13;9.02;;;5.30;;
69511;SDS011;70777;52.034;4.644;2023-07-08T15:05:38;9.73;;;4.90;;
69511;SDS011;70777;52.034;4.644;2023-07-08T15:08:04;9.00;;;5.20;;
69511;SDS011;70777;52.034;4.644;2023-07-08T15:10:30;9.32;;;5.57;;
69511;SDS011;70777;52.034;4.644;2023-07-08T15:12:56;9.57;;;5.53;;
69511;SDS011;70777;52.034;4.644;2023-07-08T15:15:26;8.48;;;5.55;;
69511;SDS011;70777;52.034;4.644;2023-07-08T15:17:57;9.02;;;5.07;;
69511;SDS011;70777;52.034;4.644;2023-07-08T15:20:23;9.00;;;5.32;;
69511;SDS011;70777;52.034;4.644;2023-07-08T15:22:49;12.43;;;5.10;;
69511;SDS011;70777;52.034;4.644;2023-07-08T15:25:16;9.60;;;6.07;;
69511;SDS011;70777;52.034;4.644;2023-07-08T15:27:47;8.15;;;4.97;;
69511;SDS011;70777;52.034;4.644;2023-07-08T15:30:16;10.70;;;5.55;;
69511;SDS011;70777;52.034;4.644;2023-07-08T15:32:44;9.02;;;5.63;;
69511;SDS011;70777;52.034;4.644;2023-07-08T15:35:14;7.95;;;5.50;;
69511;SDS011;70777;52.034;4.644;2023-07-08T15:37:42;10.77;;;5.15;;
69511;SDS011;70777;52.034;4.644;2023-07-08T15:40:08;11.18;;;6.38;;
69511;SDS011;70777;52.034;4.644;2023-07-08T15:47:40;10.07;;;5.88;;
69511;SDS011;70777;52.034;4.644;2023-07-08T15:52:39;8.82;;;4.70;;
69511;SDS011;70777;52.034;4.644;2023-07-08T15:57:31;10.93;;;6.32;;
69511;SDS011;70777;52.034;4.644;2023-07-08T15:59:58;8.85;;;5.35;;
69511;SDS011;70777;52.034;4.644;2023-07-08T16:04:51;10.35;;;4.80;;
69511;SDS011;70777;52.034;4.644;2023-07-08T16:09:41;9.90;;;5.57;;
69511;SDS011;70777;52.034;4.644;2023-07-08T16:14:33;11.05;;;5.53;;
69511;SDS011;70777;52.034;4.644;2023-07-08T16:19:23;11.43;;;5.77;;
69511;SDS011;70777;52.034;4.644;2023-07-08T16:24:14;8.53;;;5.80;;
69511;SDS011;70777;52.034;4.644;2023-07-08T16:29:05;9.20;;;5.63;;
69511;SDS011;70777;52.034;4.644;2023-07-08T16:33:56;9.37;;;5.70;;
69511;SDS011;70777;52.034;4.644;2023-07-08T16:36:23;10.55;;;5.65;;
69511;SDS011;70777;52.034;4.644;2023-07-08T16:38:51;11.30;;;5.25;;
69511;SDS011;70777;52.034;4.644;2023-07-08T16:41:20;8.07;;;5.85;;
69511;SDS011;70777;52.034;4.644;2023-07-08T16:43:47;10.63;;;5.97;;
69511;SDS011;70777;52.034;4.644;2023-07-08T16:46:14;11.35;;;5.70;;
69511;SDS011;70777;52.034;4.644;2023-07-08T16:48:41;14.27;;;7.70;;
69511;SDS011;70777;52.034;4.644;2023-07-08T16:51:27;12.10;;;6.20;;
69511;SDS011;70777;52.034;4.644;2023-07-08T16:53:58;9.88;;;6.40;;
69511;SDS011;70777;52.034;4.644;2023-07-08T16:56:27;10.80;;;6.10;;
69511;SDS011;70777;52.034;4.644;2023-07-08T16:58:52;15.02;;;5.80;;
69511;SDS011;70777;52.034;4.644;2023-07-08T17:01:19;8.48;;;4.85;;
69511;SDS011;70777;52.034;4.644;2023-07-08T17:03:47;10.93;;;6.30;;
69511;SDS011;70777;52.034;4.644;2023-07-08T17:06:13;9.85;;;6.50;;